This is the latest recevied weather packets stored in our database for station/object LZ1NAG-10. If no packets are shown the sender has not sent any weather packets the latest 10 day(s).
| Time | Temp. | Humidity | Pressure | Rain* | Wind** | Luminosity | Snow |
|---|---|---|---|---|---|---|---|
| 1777379411 | 23.33° C | 51% | 1021.5 hPa | - | - | - | - |
| 1777378511 | 23.33° C | 52% | 1020.7 hPa | - | - | - | - |
| 1777377610 | 29.44° C | 47% | 1019.5 hPa | - | - | - | - |
| 1777376710 | 31.11° C | 46% | 1020.8 hPa | - | - | - | - |
| 1777375810 | 31.67° C | 45% | 1020.8 hPa | - | - | - | - |
| 1777374909 | 30.56° C | 45% | 1020.9 hPa | - | - | - | - |
| 1777374009 | 30.56° C | 45% | 1021.2 hPa | - | - | - | - |
| 1777373106 | 29.44° C | 45% | 1021.1 hPa | - | - | - | - |
| 1777372206 | 29.44° C | 45% | 1021.2 hPa | - | - | - | - |
| 1777371306 | 30° C | 45% | 1021.5 hPa | - | - | - | - |
| 1777370405 | 29.44° C | 45% | 1022.1 hPa | - | - | - | - |
| 1777369505 | 28.33° C | 45% | 1022.1 hPa | - | - | - | - |
| 1777368605 | 27.22° C | 46% | 1021.9 hPa | - | - | - | - |
| 1777367705 | 28.33° C | 44% | 1022.3 hPa | - | - | - | - |
| 1777366805 | 27.78° C | 44% | 1022.4 hPa | - | - | - | - |
| 1777365905 | 26.11° C | 44% | 1022.5 hPa | - | - | - | - |
| 1777365004 | 24.44° C | 46% | 1022.5 hPa | - | - | - | - |
| 1777364104 | 26.67° C | 43% | 1022.5 hPa | - | - | - | - |
| 1777363204 | 26.11° C | 43% | 1022.5 hPa | - | - | - | - |
| 1777362304 | 24.44° C | 44% | 1022.6 hPa | - | - | - | - |
| 1777361404 | 23.89° C | 43% | 1022.1 hPa | - | - | - | - |
| 1777360503 | 22.78° C | 44% | 1022.7 hPa | - | - | - | - |
| 1777359603 | 23.89° C | 42% | 1022.3 hPa | - | - | - | - |
| 1777358704 | 22.22° C | 43% | 1022.6 hPa | - | - | - | - |
| 1777357803 | 22.22° C | 43% | 1022.8 hPa | - | - | - | - |
* Rain since midnight (hover to see other rain measurements)
** Current wind speed in m/s (hover to see current wind gust speed)